Time;durP1;ratioP1;P1;durP2;ratioP2;P2;SDS_P1;SDS_P2;PMS_P1;PMS_P2;Temp;Humidity;BMP_temperature;BMP_pressure;BME280_temperature;BME280_humidity;BME280_pressure;Samples;Min_cycle;Max_cycle;Signal;HPM_P1;HPM_P2
2022/09/09 00:01:40;;;;;;;3.70;1.40;;;;;;;;;;4974592;28;20035;-70
2022/09/09 00:04:30;;;;;;;9.13;1.42;;;;;;;;;;4966247;28;20050;-70
2022/09/09 00:07:18;;;;;;;;;;;;;;;;;;4973156;28;20456;-71
2022/09/09 00:10:22;;;;;;;2.92;1.52;;;;;;;;;;4972878;28;20408;-70
2022/09/09 00:13:27;;;;;;;5.40;1.95;;;;;;;;;;4950330;28;20019;-71
2022/09/09 00:16:13;;;;;;;3.78;1.60;;;;;;;;;;4974930;28;20027;-71
2022/09/09 00:19:10;;;;;;;4.45;1.75;;;;;;;;;;4977673;28;20354;-71
2022/09/09 00:21:57;;;;;;;5.30;1.95;;;;;;;;;;5008931;28;20032;-71
2022/09/09 00:24:44;;;;;;;4.32;1.58;;;;;;;;;;5003693;28;20022;-71
2022/09/09 00:27:37;;;;;;;6.15;2.20;;;;;;;;;;4999334;28;20044;-71
2022/09/09 00:30:24;;;;;;;2.28;1.50;;;;;;;;;;5002971;28;20081;-71
2022/09/09 00:33:11;;;;;;;3.33;1.70;;;;;;;;;;4997665;28;20030;-71
2022/09/09 00:35:58;;;;;;;3.85;1.40;;;;;;;;;;5006773;28;20029;-71
2022/09/09 00:38:52;;;;;;;3.92;1.60;;;;;;;;;;5005399;28;20026;-72
2022/09/09 00:41:44;;;;;;;4.20;1.90;;;;;;;;;;5008577;28;20468;-71
2022/09/09 00:44:35;;;;;;;3.40;1.20;;;;;;;;;;5008214;28;20113;-71
2022/09/09 00:47:20;;;;;;;4.63;1.40;;;;;;;;;;5011326;28;20030;-65
2022/09/09 00:50:11;;;;;;;5.60;1.30;;;;;;;;;;5011407;28;20524;-63
2022/09/09 00:53:12;;;;;;;5.85;2.08;;;;;;;;;;5007187;28;20108;-63
2022/09/09 00:55:57;;;;;;;2.85;1.38;;;;;;;;;;5008067;28;20022;-67
2022/09/09 00:58:50;;;;;;;6.05;1.60;;;;;;;;;;5010158;28;20050;-63
2022/09/09 01:01:36;;;;;;;2.15;1.13;;;;;;;;;;4996213;28;20038;-63
2022/09/09 01:04:28;;;;;;;5.68;1.40;;;;;;;;;;5001749;28;20022;-65
2022/09/09 01:07:17;;;;;;;4.95;1.75;;;;;;;;;;5009227;28;20046;-70
2022/09/09 01:10:11;;;;;;;4.10;1.42;;;;;;;;;;5002642;28;20400;-68
2022/09/09 01:13:01;;;;;;;6.38;1.33;;;;;;;;;;5009051;28;20030;-68
2022/09/09 01:15:48;;;;;;;5.00;2.55;;;;;;;;;;5010388;28;20025;-68
2022/09/09 01:18:36;;;;;;;4.22;1.60;;;;;;;;;;5010082;28;20657;-68
2022/09/09 01:21:25;;;;;;;7.03;2.03;;;;;;;;;;4970955;28;20066;-68
2022/09/09 01:24:20;;;;;;;5.40;1.40;;;;;;;;;;4971858;28;20422;-67
2022/09/09 01:27:06;;;;;;;2.00;1.27;;;;;;;;;;4960596;28;20053;-65
2022/09/09 01:29:52;;;;;;;3.97;1.42;;;;;;;;;;4964803;28;20390;-64
2022/09/09 01:32:48;;;;;;;4.25;1.50;;;;;;;;;;4970482;28;20040;-65
2022/09/09 01:35:37;;;;;;;3.70;1.30;;;;;;;;;;4968897;28;20031;-64
2022/09/09 01:38:23;;;;;;;5.85;1.35;;;;;;;;;;4960200;28;20097;-64
2022/09/09 01:41:09;;;;;;;3.60;1.40;;;;;;;;;;4983004;28;20485;-64
2022/09/09 01:43:55;;;;;;;3.03;1.58;;;;;;;;;;4969777;28;20035;-64
2022/09/09 01:46:40;;;;;;;3.45;1.35;;;;;;;;;;4970548;28;20501;-64
2022/09/09 01:49:26;;;;;;;4.43;1.20;;;;;;;;;;4965944;28;20110;-64
2022/09/09 01:52:12;;;;;;;6.78;1.52;;;;;;;;;;4969714;28;20038;-66
2022/09/09 01:54:57;;;;;;;4.13;1.35;;;;;;;;;;4963905;28;20031;-64
2022/09/09 01:57:50;;;;;;;4.25;1.55;;;;;;;;;;4969497;28;20050;-63
2022/09/09 02:00:37;;;;;;;2.95;1.13;;;;;;;;;;4969903;28;20031;-71
2022/09/09 02:03:27;;;;;;;4.10;1.20;;;;;;;;;;4971183;28;20069;-70
2022/09/09 02:06:30;;;;;;;5.15;1.50;;;;;;;;;;4971400;28;20136;-71
2022/09/09 02:09:18;;;;;;;3.40;1.77;;;;;;;;;;4968381;28;20038;-72
2022/09/09 02:12:11;;;;;;;3.05;1.23;;;;;;;;;;4958501;28;20025;-73
2022/09/09 02:15:01;;;;;;;4.57;1.70;;;;;;;;;;4960545;28;20023;-72
2022/09/09 02:17:49;;;;;;;3.38;1.30;;;;;;;;;;4964521;28;20038;-73
2022/09/09 02:20:37;;;;;;;3.47;1.30;;;;;;;;;;4982809;28;20072;-69
2022/09/09 02:23:23;;;;;;;2.92;1.48;;;;;;;;;;4990079;28;20030;-71
2022/09/09 02:26:10;;;;;;;3.70;1.48;;;;;;;;;;4975573;28;20027;-72
2022/09/09 02:28:58;;;;;;;3.47;1.50;;;;;;;;;;4983130;28;20056;-71
2022/09/09 02:31:45;;;;;;;2.35;1.20;;;;;;;;;;4988036;28;20619;-72
2022/09/09 02:34:33;;;;;;;3.83;1.42;;;;;;;;;;4986251;28;20035;-72
2022/09/09 02:37:19;;;;;;;4.85;1.13;;;;;;;;;;4984598;28;20034;-68
2022/09/09 02:40:07;;;;;;;2.03;1.00;;;;;;;;;;4985531;28;20382;-70
2022/09/09 02:42:54;;;;;;;2.63;1.10;;;;;;;;;;4982920;28;20019;-64
2022/09/09 02:45:42;;;;;;;3.00;1.40;;;;;;;;;;4973653;28;20045;-64
2022/09/09 02:48:27;;;;;;;5.25;1.40;;;;;;;;;;4980195;28;20501;-63
2022/09/09 02:51:13;;;;;;;5.22;1.70;;;;;;;;;;4982892;28;20389;-64
2022/09/09 02:54:14;;;;;;;5.20;1.20;;;;;;;;;;4978119;28;20023;-64
2022/09/09 02:57:20;;;;;;;5.18;1.48;;;;;;;;;;4971792;28;20026;-74
2022/09/09 03:00:06;;;;;;;2.50;1.35;;;;;;;;;;4978993;28;20109;-71
2022/09/09 03:02:53;;;;;;;5.72;1.63;;;;;;;;;;4975993;28;20022;-71
2022/09/09 03:05:38;;;;;;;3.25;1.60;;;;;;;;;;4984885;28;20028;-71
2022/09/09 03:08:24;;;;;;;3.20;1.25;;;;;;;;;;4986559;28;20042;-72
2022/09/09 03:11:09;;;;;;;5.35;1.70;;;;;;;;;;4990280;28;20022;-70
2022/09/09 03:13:58;;;;;;;4.28;1.45;;;;;;;;;;4990509;28;20034;-65
2022/09/09 03:16:44;;;;;;;4.93;1.10;;;;;;;;;;4991269;28;20027;-65
2022/09/09 03:19:29;;;;;;;4.82;1.63;;;;;;;;;;4987528;28;20035;-73
2022/09/09 03:22:15;;;;;;;4.07;1.15;;;;;;;;;;4989253;28;20102;-71
2022/09/09 03:25:02;;;;;;;4.00;1.67;;;;;;;;;;4991927;28;20124;-71
2022/09/09 03:27:49;;;;;;;5.90;1.45;;;;;;;;;;4993015;28;20477;-71
2022/09/09 03:30:35;;;;;;;3.00;1.10;;;;;;;;;;4977378;28;20455;-72
2022/09/09 03:33:20;;;;;;;2.83;1.00;;;;;;;;;;4995410;28;20061;-73
2022/09/09 03:36:07;;;;;;;4.05;1.02;;;;;;;;;;4992984;28;20030;-68
2022/09/09 03:38:54;;;;;;;5.50;1.33;;;;;;;;;;4987815;28;20028;-67
2022/09/09 03:41:40;;;;;;;5.65;1.30;;;;;;;;;;4992246;28;20109;-68
2022/09/09 03:44:25;;;;;;;3.42;1.40;;;;;;;;;;4987458;28;20022;-67
2022/09/09 03:47:11;;;;;;;3.08;1.50;;;;;;;;;;4989926;28;20509;-68
2022/09/09 03:49:56;;;;;;;2.58;1.30;;;;;;;;;;4981982;28;20027;-68
2022/09/09 03:52:42;;;;;;;2.33;1.20;;;;;;;;;;4978376;28;20023;-71
2022/09/09 03:55:27;;;;;;;4.10;0.95;;;;;;;;;;4985903;28;20673;-74
2022/09/09 03:58:13;;;;;;;3.10;1.60;;;;;;;;;;4983657;28;20038;-75
2022/09/09 04:01:00;;;;;;;3.42;1.70;;;;;;;;;;4972017;28;20026;-73
2022/09/09 04:03:46;;;;;;;4.00;1.80;;;;;;;;;;4979415;28;20034;-73
2022/09/09 04:06:32;;;;;;;3.05;1.42;;;;;;;;;;4976522;28;20023;-73
2022/09/09 04:09:17;;;;;;;4.35;1.92;;;;;;;;;;4982066;28;20030;-72
2022/09/09 04:12:03;;;;;;;4.20;1.60;;;;;;;;;;4978182;28;20452;-71
2022/09/09 04:14:48;;;;;;;3.80;1.25;;;;;;;;;;4985828;28;20053;-78
2022/09/09 04:17:36;;;;;;;2.60;1.23;;;;;;;;;;4993736;28;20053;-77
2022/09/09 04:20:22;;;;;;;3.28;1.33;;;;;;;;;;4983231;28;20114;-77
2022/09/09 04:23:07;;;;;;;2.90;1.55;;;;;;;;;;4975420;28;20026;-78
2022/09/09 04:25:54;;;;;;;5.68;1.85;;;;;;;;;;4987890;28;20397;-78
2022/09/09 04:28:39;;;;;;;5.18;1.52;;;;;;;;;;4982594;28;20425;-66
2022/09/09 04:31:25;;;;;;;3.53;1.70;;;;;;;;;;4988852;28;20030;-72
2022/09/09 04:34:11;;;;;;;3.47;1.40;;;;;;;;;;4993306;28;20038;-71
2022/09/09 04:36:56;;;;;;;2.08;1.00;;;;;;;;;;4992673;28;20493;-70
2022/09/09 04:39:42;;;;;;;2.22;1.10;;;;;;;;;;4990287;28;20030;-70
2022/09/09 04:42:28;;;;;;;5.30;1.77;;;;;;;;;;4983701;28;20386;-70
2022/09/09 04:45:13;;;;;;;13.35;1.80;;;;;;;;;;4986063;28;20142;-73
2022/09/09 04:47:59;;;;;;;2.83;1.10;;;;;;;;;;4993496;28;20085;-78
2022/09/09 04:50:53;;;;;;;2.45;1.20;;;;;;;;;;4992221;28;20026;-75
2022/09/09 04:53:40;;;;;;;1.30;1.17;;;;;;;;;;4980865;28;20027;-76
2022/09/09 04:56:26;;;;;;;9.48;1.70;;;;;;;;;;4989195;28;20367;-76
2022/09/09 04:59:12;;;;;;;5.38;2.00;;;;;;;;;;4984703;28;20042;-76
2022/09/09 05:01:58;;;;;;;6.70;1.50;;;;;;;;;;4991261;28;20485;-76
2022/09/09 05:04:43;;;;;;;6.07;1.45;;;;;;;;;;4981399;28;20518;-62
2022/09/09 05:07:31;;;;;;;6.07;1.92;;;;;;;;;;4988139;28;20047;-63
2022/09/09 05:10:17;;;;;;;5.20;1.75;;;;;;;;;;4981769;28;20114;-71
2022/09/09 05:13:04;;;;;;;3.50;1.55;;;;;;;;;;4982478;28;20022;-70
2022/09/09 05:15:53;;;;;;;4.50;1.67;;;;;;;;;;4974741;28;20385;-71
2022/09/09 05:18:39;;;;;;;3.10;1.40;;;;;;;;;;4989420;28;20436;-70
2022/09/09 05:21:28;;;;;;;2.58;1.30;;;;;;;;;;4991078;28;20058;-71
2022/09/09 05:24:14;;;;;;;2.97;1.77;;;;;;;;;;4984501;28;20034;-70
2022/09/09 05:27:01;;;;;;;4.20;1.27;;;;;;;;;;4986353;28;20394;-64
2022/09/09 05:29:47;;;;;;;2.22;1.20;;;;;;;;;;4989781;28;20022;-64
2022/09/09 05:32:33;;;;;;;3.90;1.35;;;;;;;;;;4986246;28;20030;-69
2022/09/09 05:35:20;;;;;;;5.63;1.40;;;;;;;;;;4990521;28;20469;-69
2022/09/09 05:38:06;;;;;;;4.32;2.05;;;;;;;;;;4988935;28;20057;-70
2022/09/09 05:40:52;;;;;;;4.78;1.75;;;;;;;;;;4984606;28;20026;-73
2022/09/09 05:43:38;;;;;;;2.78;1.30;;;;;;;;;;4970865;28;20033;-69
2022/09/09 05:46:24;;;;;;;3.58;1.63;;;;;;;;;;4972934;28;20252;-75
2022/09/09 05:49:10;;;;;;;3.75;1.35;;;;;;;;;;4988632;28;20092;-74
2022/09/09 05:51:56;;;;;;;6.82;1.50;;;;;;;;;;4989593;28;20022;-74
2022/09/09 05:54:43;;;;;;;6.45;1.95;;;;;;;;;;4990612;28;20482;-74
2022/09/09 05:57:28;;;;;;;8.32;1.77;;;;;;;;;;4990316;28;20049;-71
2022/09/09 06:00:15;;;;;;;5.60;1.65;;;;;;;;;;4974082;28;20042;-72
2022/09/09 06:03:00;;;;;;;6.13;2.20;;;;;;;;;;4973397;28;20030;-73
2022/09/09 06:05:46;;;;;;;4.25;1.70;;;;;;;;;;4990215;28;20054;-73
2022/09/09 06:08:32;;;;;;;6.03;2.03;;;;;;;;;;4989876;28;20066;-73
2022/09/09 06:11:19;;;;;;;4.72;2.00;;;;;;;;;;4975399;28;20032;-74
2022/09/09 06:14:05;;;;;;;4.15;1.70;;;;;;;;;;4986482;28;20568;-73
2022/09/09 06:16:51;;;;;;;8.70;2.65;;;;;;;;;;4984531;28;20037;-72
2022/09/09 06:19:37;;;;;;;7.05;2.10;;;;;;;;;;4985353;28;20057;-76
2022/09/09 06:22:22;;;;;;;4.82;2.25;;;;;;;;;;4985884;28;20037;-71
2022/09/09 06:25:09;;;;;;;5.43;2.80;;;;;;;;;;4986582;28;20101;-69
2022/09/09 06:27:54;;;;;;;5.05;1.80;;;;;;;;;;4984878;28;20066;-72
2022/09/09 06:30:41;;;;;;;4.72;2.00;;;;;;;;;;4982591;28;20359;-71
2022/09/09 06:33:27;;;;;;;4.43;1.70;;;;;;;;;;4984457;28;20453;-70
2022/09/09 06:36:14;;;;;;;3.40;1.70;;;;;;;;;;4972081;28;20026;-72
2022/09/09 06:39:00;;;;;;;3.08;1.92;;;;;;;;;;4985757;28;20022;-73
2022/09/09 06:41:47;;;;;;;3.50;1.70;;;;;;;;;;4988144;28;20102;-73
2022/09/09 06:44:33;;;;;;;4.90;2.13;;;;;;;;;;4973606;28;20101;-70
2022/09/09 06:47:19;;;;;;;4.75;1.73;;;;;;;;;;4985956;28;20030;-71
2022/09/09 06:50:05;;;;;;;4.22;1.52;;;;;;;;;;4989817;28;20049;-71
2022/09/09 06:52:51;;;;;;;4.97;1.25;;;;;;;;;;4989348;28;20477;-71
2022/09/09 06:55:37;;;;;;;3.65;1.50;;;;;;;;;;4990715;28;20038;-71
2022/09/09 06:58:22;;;;;;;6.00;1.52;;;;;;;;;;4995014;28;20030;-78
2022/09/09 07:01:08;;;;;;;2.10;1.25;;;;;;;;;;4990611;28;20018;-79
2022/09/09 07:03:54;;;;;;;3.63;1.50;;;;;;;;;;4995951;28;20018;-76
2022/09/09 07:06:42;;;;;;;6.85;1.48;;;;;;;;;;4994926;28;20073;-77
2022/09/09 07:09:29;;;;;;;7.65;2.25;;;;;;;;;;4988822;28;20038;-79
2022/09/09 07:12:15;;;;;;;7.20;1.48;;;;;;;;;;4994052;28;20034;-77
2022/09/09 07:15:00;;;;;;;6.80;1.60;;;;;;;;;;4986165;28;20422;-71
2022/09/09 07:17:46;;;;;;;3.08;1.08;;;;;;;;;;4978740;28;20014;-74
2022/09/09 07:20:31;;;;;;;2.70;1.30;;;;;;;;;;4989540;28;20469;-74
2022/09/09 07:23:17;;;;;;;6.07;1.40;;;;;;;;;;4990733;28;20453;-75
2022/09/09 07:26:07;;;;;;;5.03;1.13;;;;;;;;;;4992296;28;20019;-74
2022/09/09 07:28:53;;;;;;;4.72;1.63;;;;;;;;;;4992212;28;20041;-72
2022/09/09 07:31:39;;;;;;;4.40;1.33;;;;;;;;;;4987863;28;20030;-79
2022/09/09 07:34:25;;;;;;;5.15;2.65;;;;;;;;;;4989844;28;20026;-70
2022/09/09 07:37:11;;;;;;;2.75;1.60;;;;;;;;;;4987687;28;20026;-73
2022/09/09 07:39:57;;;;;;;4.50;1.40;;;;;;;;;;4988448;28;20504;-73
2022/09/09 07:42:42;;;;;;;8.13;1.50;;;;;;;;;;4990362;28;20030;-72
2022/09/09 07:45:28;;;;;;;3.58;1.35;;;;;;;;;;4980641;28;20015;-71
2022/09/09 07:48:14;;;;;;;4.72;1.83;;;;;;;;;;4975482;28;20081;-71
2022/09/09 07:51:08;;;;;;;6.32;1.55;;;;;;;;;;4985831;28;20030;-70
2022/09/09 07:53:57;;;;;;;6.03;1.20;;;;;;;;;;4976664;28;20109;-82
2022/09/09 07:56:42;;;;;;;5.22;1.42;;;;;;;;;;4985885;28;20109;-80
2022/09/09 07:59:30;;;;;;;4.25;1.55;;;;;;;;;;4971592;28;20509;-80
2022/09/09 08:02:15;;;;;;;4.32;1.20;;;;;;;;;;4981044;28;20030;-78
2022/09/09 08:05:01;;;;;;;4.13;1.50;;;;;;;;;;4979669;28;20038;-80
2022/09/09 08:07:47;;;;;;;3.90;1.40;;;;;;;;;;4981749;28;20030;-79
2022/09/09 08:10:32;;;;;;;3.08;1.50;;;;;;;;;;4988378;28;20033;-75
2022/09/09 08:13:18;;;;;;;4.60;2.05;;;;;;;;;;4980145;28;20049;-71
2022/09/09 08:16:04;;;;;;;3.10;1.40;;;;;;;;;;4978825;28;20081;-73
2022/09/09 08:18:51;;;;;;;5.22;1.40;;;;;;;;;;4985987;28;20014;-72
2022/09/09 08:21:38;;;;;;;3.90;1.35;;;;;;;;;;4983578;28;20022;-73
2022/09/09 08:24:24;;;;;;;5.07;1.00;;;;;;;;;;4982759;28;20022;-73
2022/09/09 08:27:09;;;;;;;5.50;1.77;;;;;;;;;;4993408;28;20437;-74
2022/09/09 08:29:56;;;;;;;3.45;1.40;;;;;;;;;;4990078;28;20034;-78
2022/09/09 08:32:43;;;;;;;4.13;1.50;;;;;;;;;;4990454;28;20022;-78
2022/09/09 08:35:32;;;;;;;4.32;1.52;;;;;;;;;;4969268;28;20111;-74
2022/09/09 08:38:18;;;;;;;2.50;1.10;;;;;;;;;;4988266;28;20049;-76
2022/09/09 08:41:12;;;;;;;2.83;1.13;;;;;;;;;;4988216;28;20026;-73
2022/09/09 08:44:04;;;;;;;3.95;1.20;;;;;;;;;;4988992;28;20486;-75
2022/09/09 08:46:49;;;;;;;3.97;1.42;;;;;;;;;;4990317;28;20053;-74
2022/09/09 08:49:35;;;;;;;1.75;1.02;;;;;;;;;;4985977;28;20039;-79
2022/09/09 08:52:27;;;;;;;4.68;1.38;;;;;;;;;;4971970;28;20069;-76
2022/09/09 08:55:31;;;;;;;4.43;1.30;;;;;;;;;;4985614;28;20037;-77
2022/09/09 08:58:17;;;;;;;3.33;1.40;;;;;;;;;;4987758;28;20069;-77
2022/09/09 09:01:09;;;;;;;3.33;1.30;;;;;;;;;;4973122;28;20026;-75
2022/09/09 09:04:04;;;;;;;2.92;1.35;;;;;;;;;;4988373;28;20027;-69
2022/09/09 09:06:49;;;;;;;2.88;1.05;;;;;;;;;;4991099;28;20080;-72
2022/09/09 09:09:58;;;;;;;5.10;1.45;;;;;;;;;;4988889;28;20413;-74
2022/09/09 09:12:44;;;;;;;;;;;;;;;;;;4990470;28;20418;-74
2022/09/09 09:15:36;;;;;;;4.30;1.15;;;;;;;;;;4973675;28;19917;-73
2022/09/09 09:18:21;;;;;;;8.60;1.70;;;;;;;;;;4974091;28;20034;-72
2022/09/09 09:21:11;;;;;;;4.00;1.00;;;;;;;;;;4976501;28;20037;-71
2022/09/09 09:23:58;;;;;;;4.30;1.30;;;;;;;;;;4992435;28;20381;-86
2022/09/09 09:26:44;;;;;;;3.67;1.13;;;;;;;;;;4969129;28;20066;-70
2022/09/09 09:29:29;;;;;;;7.60;2.22;;;;;;;;;;4982697;28;20046;-70
2022/09/09 09:32:17;;;;;;;6.10;1.40;;;;;;;;;;4987394;28;20030;-69
2022/09/09 09:35:09;;;;;;;4.63;1.40;;;;;;;;;;4986561;28;20036;-71
2022/09/09 09:37:55;;;;;;;4.05;1.17;;;;;;;;;;4987081;28;20476;-70
2022/09/09 09:40:48;;;;;;;3.20;1.40;;;;;;;;;;4972812;28;20470;-72
2022/09/09 09:43:35;;;;;;;3.90;1.20;;;;;;;;;;4989798;28;20037;-71
2022/09/09 09:46:23;;;;;;;2.58;1.42;;;;;;;;;;4984220;28;20468;-75
2022/09/09 09:49:09;;;;;;;3.17;1.38;;;;;;;;;;4976842;28;20034;-74
2022/09/09 09:51:59;;;;;;;3.40;1.15;;;;;;;;;;4991052;28;20122;-74
2022/09/09 09:54:45;;;;;;;3.70;1.27;;;;;;;;;;4992341;28;20030;-75
2022/09/09 09:57:31;;;;;;;2.15;1.15;;;;;;;;;;4976412;28;20041;-75
2022/09/09 10:00:21;;;;;;;2.22;1.00;;;;;;;;;;4970337;28;20084;-88
2022/09/09 10:03:19;;;;;;;2.00;0.90;;;;;;;;;;4983431;28;20089;-78
2022/09/09 10:06:04;;;;;;;4.40;1.10;;;;;;;;;;4988085;28;20025;-80
2022/09/09 10:08:51;;;;;;;4.55;1.10;;;;;;;;;;4982692;28;20043;-64
2022/09/09 10:11:42;;;;;;;4.85;2.08;;;;;;;;;;4986555;28;20485;-65
2022/09/09 10:14:50;;;;;;;4.28;1.38;;;;;;;;;;4988913;28;20109;-66
2022/09/09 10:17:54;;;;;;;6.35;1.45;;;;;;;;;;4988766;28;20026;-69
2022/09/09 10:20:40;;;;;;;2.83;1.38;;;;;;;;;;4981283;28;20027;-70
2022/09/09 10:24:04;;;;;;;6.97;2.28;;;;;;;;;;4987168;28;20023;-70
2022/09/09 10:26:50;;;;;;;5.38;1.58;;;;;;;;;;4966279;28;20019;-71
2022/09/09 10:29:37;;;;;;;4.57;1.55;;;;;;;;;;4964690;28;20059;-71
2022/09/09 10:32:41;;;;;;;7.50;2.35;;;;;;;;;;4980907;28;20031;-69
2022/09/09 10:35:29;;;;;;;3.42;1.30;;;;;;;;;;4988333;28;20034;-70
2022/09/09 10:38:34;;;;;;;4.90;1.60;;;;;;;;;;4985696;28;20041;-75
2022/09/09 10:41:33;;;;;;;4.63;1.77;;;;;;;;;;4982719;28;20034;-66
2022/09/09 10:44:45;;;;;;;2.45;1.10;;;;;;;;;;4982705;28;20030;-66
2022/09/09 10:47:33;;;;;;;2.75;1.10;;;;;;;;;;4985605;28;20068;-66
2022/09/09 10:50:33;;;;;;;3.78;1.50;;;;;;;;;;4983120;28;20030;-62
2022/09/09 10:53:28;;;;;;;3.08;1.15;;;;;;;;;;4971997;28;20051;-67
2022/09/09 10:56:16;;;;;;;2.78;1.05;;;;;;;;;;4985675;28;20051;-75
2022/09/09 10:59:16;;;;;;;3.10;1.25;;;;;;;;;;4975917;28;20019;-72
2022/09/09 11:02:11;;;;;;;4.50;1.85;;;;;;;;;;4983158;28;20049;-74
2022/09/09 11:04:56;;;;;;;1.92;1.20;;;;;;;;;;4985175;28;20027;-75
2022/09/09 11:07:43;;;;;;;5.68;1.23;;;;;;;;;;4986728;28;20079;-74
2022/09/09 11:10:32;;;;;;;2.50;1.23;;;;;;;;;;4983711;28;20105;-71
2022/09/09 11:13:33;;;;;;;7.28;1.58;;;;;;;;;;4968718;28;20037;-72
2022/09/09 11:16:21;;;;;;;7.65;1.70;;;;;;;;;;4983954;28;20045;-65
2022/09/09 11:19:25;;;;;;;3.92;1.90;;;;;;;;;;4983974;28;20061;-67
2022/09/09 11:22:18;;;;;;;4.20;1.20;;;;;;;;;;4981204;28;20117;-64
2022/09/09 11:25:03;;;;;;;3.47;1.63;;;;;;;;;;4977490;28;20026;-66
2022/09/09 11:27:52;;;;;;;4.47;1.10;;;;;;;;;;4982900;28;20405;-68
2022/09/09 11:30:50;;;;;;;2.17;1.20;;;;;;;;;;4983533;28;20040;-67
2022/09/09 11:33:38;;;;;;;4.63;1.30;;;;;;;;;;4987687;28;20499;-71
2022/09/09 11:36:36;;;;;;;2.83;0.90;;;;;;;;;;4983965;28;20050;-66
2022/09/09 11:39:30;;;;;;;4.15;1.10;;;;;;;;;;4980508;28;20029;-68
2022/09/09 11:42:19;;;;;;;2.30;1.40;;;;;;;;;;4986904;28;20032;-66
2022/09/09 11:45:29;;;;;;;3.92;0.90;;;;;;;;;;4991791;28;20027;-67
2022/09/09 11:48:24;;;;;;;2.58;0.93;;;;;;;;;;4983878;28;20053;-67
2022/09/09 11:51:12;;;;;;;3.80;1.08;;;;;;;;;;4989202;28;20018;-66
2022/09/09 11:54:02;;;;;;;3.53;1.45;;;;;;;;;;4988143;28;20042;-73
2022/09/09 11:56:48;;;;;;;1.48;0.73;;;;;;;;;;4991063;28;20134;-72
2022/09/09 11:59:35;;;;;;;0.98;0.68;;;;;;;;;;4989255;28;20038;-72
2022/09/09 12:02:26;;;;;;;4.05;1.15;;;;;;;;;;4990779;28;20022;-70
2022/09/09 12:05:13;;;;;;;3.70;0.90;;;;;;;;;;4987661;28;20026;-72
2022/09/09 12:08:01;;;;;;;0.63;0.52;;;;;;;;;;4985668;28;20027;-70
2022/09/09 12:10:53;;;;;;;2.35;1.25;;;;;;;;;;4988216;28;20041;-68
2022/09/09 12:13:41;;;;;;;0.88;0.68;;;;;;;;;;4989831;28;20068;-68
2022/09/09 12:16:38;;;;;;;3.08;0.70;;;;;;;;;;4983675;28;20122;-67
2022/09/09 12:19:23;;;;;;;1.42;1.33;;;;;;;;;;4988691;28;20516;-68
2022/09/09 12:22:12;;;;;;;3.28;1.00;;;;;;;;;;4986186;28;20121;-68
2022/09/09 12:25:04;;;;;;;5.03;0.90;;;;;;;;;;4983444;28;20018;-68
2022/09/09 12:28:13;;;;;;;2.58;0.93;;;;;;;;;;4989878;28;20034;-68
2022/09/09 12:31:03;;;;;;;4.03;0.90;;;;;;;;;;4985994;28;20122;-70
2022/09/09 12:33:49;;;;;;;4.20;1.35;;;;;;;;;;4990263;28;20120;-72
2022/09/09 12:36:35;;;;;;;0.82;0.70;;;;;;;;;;4988938;28;20034;-72
2022/09/09 12:39:26;;;;;;;5.75;0.95;;;;;;;;;;4988762;28;20405;-72
2022/09/09 12:42:19;;;;;;;2.78;1.08;;;;;;;;;;4981584;28;20065;-72
2022/09/09 12:45:16;;;;;;;1.80;0.60;;;;;;;;;;4988157;28;20018;-72
2022/09/09 12:48:02;;;;;;;3.75;1.00;;;;;;;;;;4988692;28;20504;-75
2022/09/09 12:50:49;;;;;;;1.40;0.93;;;;;;;;;;4976460;28;20035;-75
2022/09/09 12:53:36;;;;;;;2.13;1.00;;;;;;;;;;4988826;28;20441;-75
2022/09/09 12:56:24;;;;;;;2.72;0.90;;;;;;;;;;4991069;28;20040;-73
2022/09/09 12:59:21;;;;;;;3.00;1.40;;;;;;;;;;4980775;28;20030;-75
2022/09/09 13:02:16;;;;;;;1.83;0.77;;;;;;;;;;4985921;28;20060;-74
2022/09/09 13:05:19;;;;;;;2.63;0.80;;;;;;;;;;4987086;28;20022;-68
2022/09/09 13:08:06;;;;;;;3.55;0.80;;;;;;;;;;4987127;28;20026;-74
2022/09/09 13:10:54;;;;;;;4.00;0.98;;;;;;;;;;4988911;28;20038;-72
2022/09/09 13:13:40;;;;;;;5.47;1.00;;;;;;;;;;4984614;28;20574;-75
2022/09/09 13:16:31;;;;;;;2.97;1.05;;;;;;;;;;4986182;28;20049;-75
2022/09/09 13:19:17;;;;;;;5.18;1.40;;;;;;;;;;4987540;28;20026;-74
2022/09/09 13:22:21;;;;;;;4.38;0.95;;;;;;;;;;4981552;28;20102;-71
2022/09/09 13:25:10;;;;;;;1.92;0.90;;;;;;;;;;4970365;28;20023;-66
2022/09/09 13:28:01;;;;;;;1.67;0.95;;;;;;;;;;4989759;28;20307;-65
2022/09/09 13:30:55;;;;;;;4.05;0.90;;;;;;;;;;4984515;28;20026;-66
2022/09/09 13:33:40;;;;;;;5.82;1.08;;;;;;;;;;4975730;28;20030;-66
2022/09/09 13:36:34;;;;;;;4.32;0.98;;;;;;;;;;4985411;28;21211;-64
2022/09/09 13:39:20;;;;;;;2.25;1.05;;;;;;;;;;4982963;28;20071;-69
2022/09/09 13:42:06;;;;;;;2.50;0.60;;;;;;;;;;4984637;28;20077;-73
2022/09/09 13:44:53;;;;;;;3.00;1.05;;;;;;;;;;4983327;28;20369;-76
2022/09/09 13:47:38;;;;;;;2.97;0.80;;;;;;;;;;4970726;28;20050;-75
2022/09/09 13:50:25;;;;;;;2.70;0.98;;;;;;;;;;4980832;28;20038;-74
2022/09/09 13:53:11;;;;;;;1.85;0.80;;;;;;;;;;4982762;28;20022;-75
2022/09/09 13:55:57;;;;;;;1.45;0.70;;;;;;;;;;4983983;28;20084;-73
2022/09/09 13:58:43;;;;;;;2.67;1.10;;;;;;;;;;4984021;28;20030;-72
2022/09/09 14:01:28;;;;;;;3.33;1.52;;;;;;;;;;4965551;28;20105;-74
2022/09/09 14:04:15;;;;;;;1.45;0.77;;;;;;;;;;4988905;28;20026;-73
2022/09/09 14:07:01;;;;;;;1.40;0.73;;;;;;;;;;4974770;28;20038;-73
2022/09/09 14:09:49;;;;;;;2.28;1.20;;;;;;;;;;4986254;28;20046;-72
2022/09/09 14:12:36;;;;;;;2.05;0.80;;;;;;;;;;4991419;28;20042;-73
2022/09/09 14:15:21;;;;;;;1.40;0.75;;;;;;;;;;4971140;28;20488;-74
2022/09/09 14:18:10;;;;;;;5.47;1.27;;;;;;;;;;4975566;28;20405;-75
2022/09/09 14:20:58;;;;;;;1.65;0.80;;;;;;;;;;4987853;28;20025;-68
2022/09/09 14:23:43;;;;;;;2.70;1.10;;;;;;;;;;4987357;28;20033;-67
2022/09/09 14:26:29;;;;;;;1.85;1.08;;;;;;;;;;4979860;28;20370;-69
2022/09/09 14:29:15;;;;;;;1.83;0.77;;;;;;;;;;4983021;28;20076;-67
2022/09/09 14:32:01;;;;;;;3.47;1.10;;;;;;;;;;4983218;28;20489;-67
2022/09/09 14:34:49;;;;;;;2.08;0.75;;;;;;;;;;4974541;28;20392;-68
2022/09/09 14:37:34;;;;;;;0.70;0.70;;;;;;;;;;4983320;28;20034;-67
2022/09/09 14:40:20;;;;;;;3.13;0.90;;;;;;;;;;4988462;28;20031;-74
2022/09/09 14:43:06;;;;;;;3.55;1.20;;;;;;;;;;4989114;28;20026;-72
2022/09/09 14:45:51;;;;;;;1.40;0.60;;;;;;;;;;4984709;28;20439;-73
2022/09/09 14:48:40;;;;;;;5.03;0.95;;;;;;;;;;4984060;28;20131;-72
2022/09/09 14:51:28;;;;;;;2.42;0.82;;;;;;;;;;4972960;28;20026;-71
2022/09/09 14:54:14;;;;;;;1.85;1.00;;;;;;;;;;4979070;28;20397;-72
2022/09/09 14:57:00;;;;;;;3.22;1.27;;;;;;;;;;4985733;28;20022;-66
2022/09/09 14:59:45;;;;;;;2.25;0.85;;;;;;;;;;4978741;28;20382;-65
2022/09/09 15:02:31;;;;;;;2.63;0.77;;;;;;;;;;4984814;28;20065;-65
2022/09/09 15:05:16;;;;;;;4.72;2.53;;;;;;;;;;4974507;28;20043;-68
2022/09/09 15:08:02;;;;;;;4.00;1.30;;;;;;;;;;4985511;28;20466;-65
2022/09/09 15:10:47;;;;;;;5.18;3.35;;;;;;;;;;4983025;28;20027;-65
2022/09/09 15:13:37;;;;;;;3.28;1.60;;;;;;;;;;4987927;28;20465;-72
2022/09/09 15:16:24;;;;;;;3.55;1.08;;;;;;;;;;4989863;28;20034;-71
2022/09/09 15:19:09;;;;;;;4.25;0.90;;;;;;;;;;4991537;28;20022;-72
2022/09/09 15:21:55;;;;;;;2.25;1.00;;;;;;;;;;4993841;28;20022;-73
2022/09/09 15:24:40;;;;;;;6.03;0.88;;;;;;;;;;4990621;28;20444;-72
2022/09/09 15:27:26;;;;;;;2.90;1.45;;;;;;;;;;4985780;28;20223;-73
2022/09/09 15:30:11;;;;;;;2.95;1.30;;;;;;;;;;4985942;28;20045;-65
2022/09/09 15:32:57;;;;;;;1.63;0.85;;;;;;;;;;4988215;28;20018;-64
2022/09/09 15:35:42;;;;;;;3.65;1.17;;;;;;;;;;4979462;28;20025;-71
2022/09/09 15:38:30;;;;;;;3.45;1.38;;;;;;;;;;4987763;28;20026;-72
2022/09/09 15:41:17;;;;;;;1.98;0.90;;;;;;;;;;4971621;28;20026;-73
2022/09/09 15:44:02;;;;;;;4.22;1.30;;;;;;;;;;4988299;28;20102;-72
2022/09/09 15:46:49;;;;;;;3.50;1.30;;;;;;;;;;4988336;28;20065;-72
2022/09/09 15:49:35;;;;;;;5.93;2.05;;;;;;;;;;4986548;28;20062;-73
2022/09/09 15:52:20;;;;;;;2.15;0.80;;;;;;;;;;4983821;28;20023;-68
2022/09/09 15:55:08;;;;;;;2.65;1.02;;;;;;;;;;4968750;28;20022;-65
2022/09/09 15:57:54;;;;;;;1.13;0.80;;;;;;;;;;4988014;28;20045;-64
2022/09/09 16:00:40;;;;;;;4.57;2.20;;;;;;;;;;4982467;28;20014;-66
2022/09/09 16:03:25;;;;;;;39.65;21.17;;;;;;;;;;4991562;28;20026;-64
2022/09/09 16:06:11;;;;;;;4.70;2.20;;;;;;;;;;4969296;28;20396;-63
2022/09/09 16:08:58;;;;;;;6.25;2.30;;;;;;;;;;4989237;28;20069;-67
2022/09/09 16:11:44;;;;;;;5.43;1.73;;;;;;;;;;4965273;28;20023;-63
2022/09/09 16:14:33;;;;;;;3.30;1.27;;;;;;;;;;4988623;28;20028;-63
2022/09/09 16:17:20;;;;;;;2.20;1.00;;;;;;;;;;4992215;28;20022;-63
2022/09/09 16:20:08;;;;;;;2.92;0.98;;;;;;;;;;4989667;28;20065;-62
2022/09/09 16:22:54;;;;;;;6.05;1.13;;;;;;;;;;4992630;28;20034;-61
2022/09/09 16:25:39;;;;;;;5.72;1.17;;;;;;;;;;4984171;28;20066;-74
2022/09/09 16:28:25;;;;;;;5.30;1.20;;;;;;;;;;4988038;28;20057;-67
2022/09/09 16:31:13;;;;;;;9.43;2.97;;;;;;;;;;4972454;28;20100;-67
2022/09/09 16:33:59;;;;;;;18.07;5.00;;;;;;;;;;4989550;28;20049;-65
2022/09/09 16:36:45;;;;;;;5.15;1.48;;;;;;;;;;4991385;28;20056;-65
2022/09/09 16:39:30;;;;;;;6.63;1.88;;;;;;;;;;4990342;28;20069;-68
2022/09/09 16:42:16;;;;;;;4.13;1.40;;;;;;;;;;4988867;28;20057;-65
2022/09/09 16:45:02;;;;;;;2.65;0.90;;;;;;;;;;4984709;28;20109;-65
2022/09/09 16:47:48;;;;;;;4.75;1.08;;;;;;;;;;4989854;28;20030;-72
2022/09/09 16:50:34;;;;;;;2.83;0.82;;;;;;;;;;4990156;28;20045;-73